createdAt,value
2023-10-10T00:01:47.489Z,100410.25
2023-10-10T00:04:16.159Z,100409.13
2023-10-10T00:06:43.628Z,100411.84
2023-10-10T00:09:10.932Z,100410.03
2023-10-10T00:11:38.763Z,100404.75
2023-10-10T00:14:06.507Z,100411.72
2023-10-10T00:16:33.978Z,100412.63
2023-10-10T00:19:01.399Z,100412.34
2023-10-10T00:21:30.062Z,100412.44
2023-10-10T00:23:57.576Z,100412.56
2023-10-10T00:26:25.667Z,100418.75
2023-10-10T00:28:53.445Z,100417.91
2023-10-10T00:31:20.998Z,100416.91
2023-10-10T00:33:49.289Z,100415.03
2023-10-10T00:36:16.627Z,100419.59
2023-10-10T00:38:45.283Z,100415.22
2023-10-10T00:41:12.723Z,100410.38
2023-10-10T00:43:40.068Z,100422.22
2023-10-10T00:46:10.690Z,100410.78
2023-10-10T00:48:38.743Z,100411.28
2023-10-10T00:51:07.047Z,100409.78
2023-10-10T00:53:35.446Z,100404.28
2023-10-10T00:56:04.635Z,100409.13
2023-10-10T00:58:32.376Z,100413.59
2023-10-10T01:01:00.708Z,100402.16
2023-10-10T01:03:28.237Z,100398.31
2023-10-10T01:05:55.886Z,100398.13
2023-10-10T01:08:23.448Z,100394.97
2023-10-10T01:10:50.795Z,100402.66
2023-10-10T01:13:22.588Z,100394.19
2023-10-10T01:15:49.899Z,100396.41
2023-10-10T01:18:17.286Z,100396.34
2023-10-10T01:20:47.467Z,100390.63
2023-10-10T01:23:14.917Z,100393.97
2023-10-10T01:25:42.685Z,100388.94
2023-10-10T01:28:12.027Z,100394.94
2023-10-10T01:30:39.368Z,100393.19
2023-10-10T01:33:06.767Z,100388.06
2023-10-10T01:35:34.197Z,100390.69
2023-10-10T01:38:07.004Z,100384.34
2023-10-10T01:40:34.323Z,100384.50
2023-10-10T01:43:01.783Z,100377.25
2023-10-10T01:45:29.233Z,100378.84
2023-10-10T01:47:56.764Z,100380.88
2023-10-10T01:50:24.492Z,100383.25
2023-10-10T01:52:51.822Z,100382.44
2023-10-10T01:55:20.689Z,100378.75
2023-10-10T01:57:47.987Z,100373.19
2023-10-10T02:00:15.530Z,100381.13
2023-10-10T02:02:43.048Z,100367.38
2023-10-10T02:05:10.489Z,100372.38
2023-10-10T02:07:38.056Z,100366.16
2023-10-10T02:10:06.345Z,100370.41
2023-10-10T02:12:35.143Z,100370.13
2023-10-10T02:15:02.486Z,100368.63
2023-10-10T02:17:29.873Z,100361.66
2023-10-10T02:19:57.291Z,100360.91
2023-10-10T02:22:24.603Z,100357.09
2023-10-10T02:24:51.896Z,100355.13
2023-10-10T02:27:19.204Z,100357.06
2023-10-10T02:29:47.873Z,100361.31
2023-10-10T02:32:15.427Z,100364.41
2023-10-10T02:34:42.790Z,100360.69
2023-10-10T02:37:10.241Z,100363.69
2023-10-10T02:39:37.530Z,100360.84
2023-10-10T02:42:05.157Z,100370.13
2023-10-10T02:44:32.606Z,100364.22
2023-10-10T02:47:01.526Z,100354.44
2023-10-10T02:49:28.898Z,100348.25
2023-10-10T02:51:57.203Z,100353.78
2023-10-10T02:54:26.283Z,100349.09
2023-10-10T02:56:54.052Z,100351.91
2023-10-10T02:59:21.354Z,100349.09
2023-10-10T03:01:49.368Z,100342.97
2023-10-10T03:04:18.256Z,100343.63
2023-10-10T03:06:45.657Z,100345.00
2023-10-10T03:09:13.245Z,100340.09
2023-10-10T03:11:40.704Z,100343.69
2023-10-10T03:14:08.165Z,100348.72
2023-10-10T03:16:37.292Z,100350.84
2023-10-10T03:19:04.775Z,100355.81
2023-10-10T03:21:33.435Z,100356.19
2023-10-10T03:24:00.843Z,100358.63
2023-10-10T03:26:28.263Z,100358.09
2023-10-10T03:28:56.194Z,100363.66
2023-10-10T03:31:26.330Z,100360.97
2023-10-10T03:33:53.794Z,100361.63
2023-10-10T03:36:24.193Z,100365.63
2023-10-10T03:38:53.553Z,100360.25
2023-10-10T03:41:22.262Z,100369.91
2023-10-10T03:43:49.620Z,100362.63
2023-10-10T03:46:18.002Z,100364.69
2023-10-10T03:48:45.306Z,100363.47
2023-10-10T03:51:12.642Z,100366.06
2023-10-10T03:53:40.014Z,100355.56
2023-10-10T03:56:08.739Z,100357.84
2023-10-10T03:58:36.263Z,100358.03
2023-10-10T04:01:03.735Z,100359.88
2023-10-10T04:03:31.154Z,100350.25
2023-10-10T04:06:02.969Z,100355.03
2023-10-10T04:08:30.712Z,100357.38
2023-10-10T04:10:58.269Z,100355.78
2023-10-10T04:13:27.067Z,100359.88
2023-10-10T04:15:54.363Z,100353.47
2023-10-10T04:18:21.776Z,100354.28
2023-10-10T04:20:49.103Z,100343.72
2023-10-10T04:23:16.422Z,100341.81
2023-10-10T04:25:43.730Z,100340.66
2023-10-10T04:28:11.043Z,100342.00
2023-10-10T04:30:39.788Z,100345.38
2023-10-10T04:33:07.167Z,100335.00
2023-10-10T04:35:34.766Z,100343.34
2023-10-10T04:38:02.111Z,100340.47
2023-10-10T04:40:29.432Z,100340.41
2023-10-10T04:42:56.730Z,100342.44
2023-10-10T04:45:24.189Z,100337.00
2023-10-10T04:47:53.010Z,100336.63
2023-10-10T04:50:20.571Z,100331.44
2023-10-10T04:52:47.971Z,100332.56
2023-10-10T04:55:15.586Z,100339.38
2023-10-10T04:57:43.118Z,100339.44
2023-10-10T05:00:11.106Z,100337.81
2023-10-10T05:02:38.630Z,100331.34
2023-10-10T05:05:07.961Z,100331.97
2023-10-10T05:07:35.434Z,100342.19
2023-10-10T05:10:02.879Z,100330.88
2023-10-10T05:12:30.204Z,100332.00
2023-10-10T05:14:57.504Z,100331.31
2023-10-10T05:17:25.027Z,100328.06
2023-10-10T05:19:52.399Z,100326.56
2023-10-10T05:22:21.266Z,100332.81
2023-10-10T05:24:48.574Z,100332.97
2023-10-10T05:27:16.008Z,100326.00
2023-10-10T05:29:43.498Z,100330.16
2023-10-10T05:32:10.868Z,100329.53
2023-10-10T05:34:38.410Z,100339.25
2023-10-10T05:37:05.845Z,100333.72
2023-10-10T05:39:34.533Z,100328.88
2023-10-10T05:42:01.833Z,100334.56
2023-10-10T05:44:29.234Z,100336.75
2023-10-10T05:46:56.545Z,100328.53
2023-10-10T05:49:23.849Z,100328.91
2023-10-10T05:51:51.182Z,100332.47
2023-10-10T05:54:18.519Z,100324.22
2023-10-10T05:56:47.386Z,100326.94
2023-10-10T05:59:14.976Z,100321.84
2023-10-10T06:01:42.320Z,100327.16
2023-10-10T06:04:12.846Z,100319.25
2023-10-10T06:06:42.605Z,100326.00
2023-10-10T06:09:10.337Z,100327.44
2023-10-10T06:11:37.680Z,100327.81
2023-10-10T06:14:06.548Z,100333.19
2023-10-10T06:16:33.920Z,100324.59
2023-10-10T06:19:01.320Z,100327.44
2023-10-10T06:21:28.693Z,100329.31
2023-10-10T06:23:56.146Z,100327.16
2023-10-10T06:26:23.611Z,100322.56
2023-10-10T06:28:51.143Z,100323.97
2023-10-10T06:31:20.375Z,100329.28
2023-10-10T06:33:48.141Z,100329.28
2023-10-10T06:36:15.529Z,100329.03
2023-10-10T06:38:42.967Z,100328.03
2023-10-10T06:41:10.392Z,100327.84
2023-10-10T06:43:37.751Z,100324.28
2023-10-10T06:46:05.250Z,100322.56
2023-10-10T06:48:33.976Z,100325.34
2023-10-10T06:51:01.379Z,100330.81
2023-10-10T06:53:28.840Z,100329.09
2023-10-10T06:55:56.292Z,100326.31
2023-10-10T06:58:23.576Z,100330.16
2023-10-10T07:00:50.947Z,100331.25
2023-10-10T07:03:18.286Z,100316.69
2023-10-10T07:05:47.427Z,100319.53
2023-10-10T07:08:19.512Z,100323.03
2023-10-10T07:10:47.265Z,100323.22
2023-10-10T07:13:14.658Z,100321.84
2023-10-10T07:15:42.238Z,100326.81
2023-10-10T07:18:10.343Z,100319.34
2023-10-10T07:20:38.042Z,100321.84
2023-10-10T07:23:06.767Z,100328.72
2023-10-10T07:25:34.114Z,100319.72
2023-10-10T07:28:01.464Z,100320.28
2023-10-10T07:30:29.008Z,100326.22
2023-10-10T07:32:56.817Z,100324.72
2023-10-10T07:35:24.397Z,100322.78
2023-10-10T07:37:52.004Z,100323.72
2023-10-10T07:40:20.895Z,100318.50
2023-10-10T07:42:48.502Z,100321.81
2023-10-10T07:45:15.942Z,100326.00
2023-10-10T07:47:43.534Z,100324.75
2023-10-10T07:50:20.059Z,100322.59
2023-10-10T07:52:47.441Z,100324.56
2023-10-10T07:55:14.943Z,100330.25
2023-10-10T07:57:43.680Z,100324.53
2023-10-10T08:00:12.672Z,100324.84
2023-10-10T08:02:40.051Z,100323.13
2023-10-10T08:05:07.863Z,100327.28
2023-10-10T08:07:35.421Z,100319.56
2023-10-10T08:10:03.513Z,100326.44
2023-10-10T08:12:30.830Z,100324.53
2023-10-10T08:15:03.596Z,100332.25
2023-10-10T08:17:32.442Z,100321.59
2023-10-10T08:19:59.814Z,100330.41
2023-10-10T08:22:27.275Z,100317.88
2023-10-10T08:24:54.908Z,100315.25
2023-10-10T08:27:22.364Z,100320.16
2023-10-10T08:29:49.866Z,100330.22
2023-10-10T08:32:18.762Z,100330.25
2023-10-10T08:34:46.147Z,100329.41
2023-10-10T08:37:13.459Z,100327.88
2023-10-10T08:39:40.961Z,100320.84
2023-10-10T08:42:08.275Z,100332.53
2023-10-10T08:44:39.239Z,100325.25
2023-10-10T08:47:08.295Z,100322.94
2023-10-10T08:49:37.071Z,100329.84
2023-10-10T08:52:05.126Z,100316.28
2023-10-10T08:54:32.506Z,100323.38
2023-10-10T08:57:00.059Z,100318.19
2023-10-10T08:59:28.498Z,100319.03
2023-10-10T09:01:56.837Z,100313.59
2023-10-10T09:04:24.388Z,100319.63
2023-10-10T09:06:53.146Z,100317.38
2023-10-10T09:09:20.473Z,100324.88
2023-10-10T09:11:48.025Z,100318.56
2023-10-10T09:14:15.719Z,100311.44
2023-10-10T09:16:43.508Z,100316.00
2023-10-10T09:19:11.212Z,100321.69
2023-10-10T09:21:48.320Z,100312.44
2023-10-10T09:24:18.129Z,100310.91
2023-10-10T09:26:45.665Z,100312.56
2023-10-10T09:29:28.985Z,100312.41
2023-10-10T09:31:56.305Z,100315.88
2023-10-10T09:34:24.460Z,100313.63
2023-10-10T09:36:57.469Z,100309.47
2023-10-10T09:39:28.425Z,100313.56
2023-10-10T09:41:58.917Z,100313.88
2023-10-10T09:44:26.850Z,100312.06
2023-10-10T09:46:57.815Z,100312.75
2023-10-10T09:49:26.490Z,100307.16
2023-10-10T09:51:53.888Z,100309.03
2023-10-10T09:54:22.408Z,100306.69
2023-10-10T09:56:52.285Z,100300.91
2023-10-10T09:59:19.619Z,100306.44
2023-10-10T10:01:47.786Z,100298.41
2023-10-10T10:04:21.596Z,100300.38
2023-10-10T10:07:08.308Z,100301.06
2023-10-10T10:10:16.995Z,100298.94
2023-10-10T10:13:11.436Z,100292.66
2023-10-10T10:15:50.475Z,100296.31
2023-10-10T10:18:23.492Z,100292.00
2023-10-10T10:20:51.110Z,100300.94
2023-10-10T10:23:19.451Z,100290.72
2023-10-10T10:25:53.201Z,100285.88
2023-10-10T10:28:22.217Z,100282.78
2023-10-10T10:30:52.427Z,100285.78
2023-10-10T10:33:20.726Z,100290.13
2023-10-10T10:36:04.908Z,100288.81
2023-10-10T10:38:32.304Z,100280.78
2023-10-10T10:41:00.455Z,100279.13
2023-10-10T10:43:29.321Z,100282.19
2023-10-10T10:46:05.974Z,100288.09
2023-10-10T10:48:36.627Z,100289.31
2023-10-10T10:51:12.785Z,100282.47
2023-10-10T10:53:41.657Z,100284.88
2023-10-10T10:56:08.971Z,100287.34
2023-10-10T10:58:37.853Z,100284.22
2023-10-10T11:01:06.399Z,100282.16
2023-10-10T11:03:36.680Z,100284.97
2023-10-10T11:06:07.775Z,100270.63
2023-10-10T11:08:46.232Z,100275.38
2023-10-10T11:11:19.275Z,100272.06
2023-10-10T11:13:47.966Z,100270.91
2023-10-10T11:16:15.496Z,100274.94
2023-10-10T11:18:43.074Z,100271.38
2023-10-10T11:21:11.044Z,100269.38
2023-10-10T11:23:38.875Z,100260.81
2023-10-10T11:26:06.662Z,100253.34
2023-10-10T11:28:34.218Z,100242.63
2023-10-10T11:31:03.976Z,100243.13
2023-10-10T11:33:33.194Z,100238.50
2023-10-10T11:36:21.724Z,100239.44
2023-10-10T11:38:49.233Z,100233.97
2023-10-10T11:41:24.609Z,100232.19
2023-10-10T11:43:59.230Z,100220.19
2023-10-10T11:46:28.070Z,100217.16
2023-10-10T11:48:55.557Z,100218.81
2023-10-10T11:51:33.952Z,100220.56
2023-10-10T11:54:01.345Z,100218.44
2023-10-10T11:56:28.720Z,100208.59
2023-10-10T11:58:56.030Z,100203.81
2023-10-10T12:01:23.751Z,100202.72
2023-10-10T12:03:53.539Z,100195.97
2023-10-10T12:06:21.216Z,100195.38
2023-10-10T12:08:49.204Z,100187.56
2023-10-10T12:11:16.707Z,100193.56
2023-10-10T12:13:44.039Z,100184.25
2023-10-10T12:16:11.469Z,100178.47
2023-10-10T12:18:39.278Z,100175.31
2023-10-10T12:21:07.966Z,100174.88
2023-10-10T12:23:35.847Z,100170.72
2023-10-10T12:26:03.387Z,100165.88
2023-10-10T12:28:30.766Z,100162.66
2023-10-10T12:30:58.218Z,100165.09
2023-10-10T12:33:25.809Z,100159.66
2023-10-10T12:35:54.972Z,100159.34
2023-10-10T12:38:25.662Z,100154.19
2023-10-10T12:40:54.519Z,100153.13
2023-10-10T12:43:22.905Z,100154.03
2023-10-10T12:45:50.318Z,100148.22
2023-10-10T12:48:18.372Z,100137.22
2023-10-10T12:50:45.885Z,100140.09
2023-10-10T12:53:13.348Z,100137.19
2023-10-10T12:55:42.893Z,100129.22
2023-10-10T12:58:10.222Z,100134.63
2023-10-10T13:00:37.615Z,100132.31
2023-10-10T13:03:05.564Z,100133.72
2023-10-10T13:05:33.033Z,100120.72
2023-10-10T13:08:00.654Z,100124.25
2023-10-10T13:10:28.898Z,100122.38
2023-10-10T13:12:57.625Z,100121.38
2023-10-10T13:15:26.246Z,100120.63
2023-10-10T13:17:53.610Z,100128.72
2023-10-10T13:20:21.739Z,100114.44
2023-10-10T13:22:49.272Z,100118.09
2023-10-10T13:25:17.253Z,100117.97
2023-10-10T13:27:44.593Z,100110.81
2023-10-10T13:30:14.365Z,100117.88
2023-10-10T13:32:41.765Z,100104.34
2023-10-10T13:35:10.008Z,100111.88
2023-10-10T13:37:37.604Z,100111.53
2023-10-10T13:40:05.553Z,100106.72
2023-10-10T13:42:32.915Z,100106.69
2023-10-10T13:45:00.436Z,100104.66
2023-10-10T13:47:29.283Z,100099.13
2023-10-10T13:49:56.684Z,100101.91
2023-10-10T13:52:23.995Z,100097.50
2023-10-10T13:54:51.382Z,100090.88
2023-10-10T13:57:18.860Z,100094.19
2023-10-10T13:59:49.284Z,100081.31
2023-10-10T14:02:16.657Z,100090.63
2023-10-10T14:04:45.468Z,100092.09
2023-10-10T14:07:13.735Z,100091.41
2023-10-10T14:09:51.932Z,100095.69
2023-10-10T14:12:28.383Z,100085.13
2023-10-10T14:14:55.881Z,100083.75
2023-10-10T14:17:23.253Z,100077.81
2023-10-10T14:19:54.614Z,100084.34
2023-10-10T14:22:21.924Z,100079.28
2023-10-10T14:24:49.272Z,100080.78
2023-10-10T14:27:16.743Z,100077.81
2023-10-10T14:29:44.218Z,100077.84
2023-10-10T14:32:20.136Z,100075.59
2023-10-10T14:34:50.562Z,100074.19
2023-10-10T14:37:34.021Z,100076.16
2023-10-10T14:40:08.378Z,100075.91
2023-10-10T14:42:35.747Z,100073.41
2023-10-10T14:45:03.507Z,100073.28
2023-10-10T14:47:30.910Z,100066.72
2023-10-10T14:49:58.379Z,100068.19
2023-10-10T14:52:27.187Z,100076.28
2023-10-10T14:54:54.490Z,100074.38
2023-10-10T14:57:21.826Z,100076.22
2023-10-10T14:59:49.184Z,100068.25
2023-10-10T15:02:16.538Z,100075.56
2023-10-10T15:04:43.860Z,100079.13
2023-10-10T15:07:11.201Z,100068.25
2023-10-10T15:09:39.923Z,100070.72
2023-10-10T15:12:07.300Z,100077.88
2023-10-10T15:14:34.635Z,100075.66
2023-10-10T15:17:02.123Z,100080.06
2023-10-10T15:19:29.531Z,100075.41
2023-10-10T15:21:57.027Z,100080.38
2023-10-10T15:24:24.684Z,100056.09
2023-10-10T15:26:53.395Z,100073.28
2023-10-10T15:29:20.992Z,100071.84
2023-10-10T15:31:48.405Z,100068.53
2023-10-10T15:34:15.795Z,100072.25
2023-10-10T15:36:43.226Z,100073.66
2023-10-10T15:39:11.685Z,100063.47
2023-10-10T15:41:40.449Z,100064.84
2023-10-10T15:44:09.387Z,100058.63
2023-10-10T15:46:40.548Z,100066.88
2023-10-10T15:49:17.795Z,100060.59
2023-10-10T15:51:56.731Z,100070.06
2023-10-10T15:54:24.057Z,100063.94
2023-10-10T15:56:51.400Z,100064.25
2023-10-10T15:59:20.301Z,100070.44
2023-10-10T16:01:47.932Z,100062.03
2023-10-10T16:04:15.581Z,100067.94
2023-10-10T16:06:43.634Z,100064.34
2023-10-10T16:09:11.613Z,100067.59
2023-10-10T16:11:39.852Z,100061.59
2023-10-10T16:14:08.331Z,100059.38
2023-10-10T16:16:38.244Z,100063.81
2023-10-10T16:19:07.346Z,100068.09
2023-10-10T16:21:34.641Z,100068.88
2023-10-10T16:24:02.046Z,100068.13
2023-10-10T16:26:29.542Z,100071.63
2023-10-10T16:28:56.870Z,100069.31
2023-10-10T16:31:24.237Z,100075.22
2023-10-10T16:33:53.249Z,100065.38
2023-10-10T16:36:20.593Z,100073.41
2023-10-10T16:38:48.747Z,100076.03
2023-10-10T16:41:17.190Z,100078.44
2023-10-10T16:43:58.189Z,100079.94
2023-10-10T16:46:28.191Z,100088.47
2023-10-10T16:48:56.938Z,100089.03
2023-10-10T16:51:24.898Z,100085.34
2023-10-10T16:53:52.226Z,100092.16
2023-10-10T16:56:20.036Z,100095.47
2023-10-10T16:58:47.700Z,100097.88
2023-10-10T17:01:15.039Z,100101.09
2023-10-10T17:03:43.679Z,100099.31
2023-10-10T17:06:12.777Z,100097.81
2023-10-10T17:08:40.233Z,100100.97
2023-10-10T17:11:08.348Z,100103.72
2023-10-10T17:13:36.228Z,100103.03
2023-10-10T17:16:03.662Z,100111.22
2023-10-10T17:18:31.252Z,100116.00
2023-10-10T17:20:59.760Z,100111.41
2023-10-10T17:23:28.889Z,100113.78
2023-10-10T17:25:56.184Z,100119.84
2023-10-10T17:28:23.722Z,100117.84
2023-10-10T17:30:51.158Z,100121.03
2023-10-10T17:33:18.675Z,100118.09
2023-10-10T17:35:46.197Z,100129.81
2023-10-10T17:38:13.623Z,100129.78
2023-10-10T17:40:42.313Z,100132.16
2023-10-10T17:43:09.817Z,100132.25
2023-10-10T17:45:37.368Z,100145.53
2023-10-10T17:48:05.550Z,100139.31
2023-10-10T17:50:33.074Z,100147.63
2023-10-10T17:53:00.508Z,100140.66
2023-10-10T17:55:27.927Z,100145.88
2023-10-10T17:57:56.598Z,100144.09
2023-10-10T18:00:23.882Z,100145.25
2023-10-10T18:02:51.335Z,100147.47
2023-10-10T18:05:18.734Z,100149.22
2023-10-10T18:07:46.028Z,100147.63
2023-10-10T18:10:13.394Z,100153.38
2023-10-10T18:12:40.698Z,100149.56
2023-10-10T18:15:10.718Z,100151.72
2023-10-10T18:17:38.645Z,100158.47
2023-10-10T18:20:07.718Z,100162.25
2023-10-10T18:22:35.063Z,100163.22
2023-10-10T18:25:02.422Z,100163.88
2023-10-10T18:27:29.805Z,100159.94
2023-10-10T18:29:57.246Z,100164.66
2023-10-10T18:32:26.152Z,100162.56
2023-10-10T18:34:53.762Z,100168.84
2023-10-10T18:37:21.093Z,100165.56
2023-10-10T18:39:48.384Z,100169.72
2023-10-10T18:42:15.825Z,100170.16
2023-10-10T18:44:43.221Z,100170.84
2023-10-10T18:47:10.623Z,100182.25
2023-10-10T18:49:39.747Z,100183.34
2023-10-10T18:52:07.825Z,100170.13
2023-10-10T18:54:35.204Z,100180.03
2023-10-10T18:57:02.596Z,100190.06
2023-10-10T18:59:30.234Z,100186.38
2023-10-10T19:01:57.624Z,100188.03
2023-10-10T19:04:25.113Z,100192.22
2023-10-10T19:06:53.873Z,100189.13
2023-10-10T19:09:21.292Z,100193.59
2023-10-10T19:11:48.660Z,100191.88
2023-10-10T19:14:16.067Z,100189.78
2023-10-10T19:16:43.748Z,100189.66
2023-10-10T19:19:11.147Z,100191.88
2023-10-10T19:21:38.528Z,100187.53
2023-10-10T19:24:07.854Z,100195.47
2023-10-10T19:26:35.517Z,100189.41
2023-10-10T19:29:02.939Z,100196.09
2023-10-10T19:31:30.300Z,100194.88
2023-10-10T19:33:57.938Z,100194.72
2023-10-10T19:36:25.376Z,100199.31
2023-10-10T19:38:52.753Z,100199.09
2023-10-10T19:41:21.541Z,100204.16
2023-10-10T19:43:48.833Z,100200.84
2023-10-10T19:46:16.391Z,100195.41
2023-10-10T19:48:44.365Z,100197.72
2023-10-10T19:51:15.426Z,100205.00
2023-10-10T19:53:42.883Z,100208.56
2023-10-10T19:56:11.941Z,100203.53
2023-10-10T19:58:40.811Z,100210.03
2023-10-10T20:01:08.705Z,100210.88
2023-10-10T20:03:36.404Z,100199.59
2023-10-10T20:06:04.020Z,100208.34
2023-10-10T20:08:31.885Z,100207.53
2023-10-10T20:10:59.278Z,100211.28
2023-10-10T20:13:26.770Z,100209.41
2023-10-10T20:15:55.477Z,100207.53
2023-10-10T20:18:23.982Z,100212.53
2023-10-10T20:20:51.618Z,100205.44
2023-10-10T20:23:18.960Z,100209.41
2023-10-10T20:25:46.331Z,100209.16
2023-10-10T20:28:13.844Z,100205.44
2023-10-10T20:30:42.315Z,100211.78
2023-10-10T20:33:11.186Z,100217.03
2023-10-10T20:35:38.588Z,100210.56
2023-10-10T20:38:05.927Z,100215.34
2023-10-10T20:40:35.025Z,100209.97
2023-10-10T20:43:04.272Z,100211.03
2023-10-10T20:45:33.001Z,100212.47
2023-10-10T20:48:00.405Z,100211.44
2023-10-10T20:50:29.225Z,100212.69
2023-10-10T20:52:58.205Z,100218.34
2023-10-10T20:55:25.805Z,100215.47
2023-10-10T20:57:53.979Z,100214.41
2023-10-10T21:00:22.647Z,100209.38
2023-10-10T21:02:50.977Z,100212.88
2023-10-10T21:05:20.231Z,100210.31
2023-10-10T21:07:49.751Z,100212.00
2023-10-10T21:10:17.918Z,100214.97
2023-10-10T21:12:45.535Z,100204.53
2023-10-10T21:15:14.778Z,100211.25
2023-10-10T21:17:42.236Z,100213.13
2023-10-10T21:20:10.814Z,100218.34
2023-10-10T21:22:38.634Z,100213.72
2023-10-10T21:25:08.611Z,100221.00
2023-10-10T21:27:36.604Z,100218.72
2023-10-10T21:30:05.169Z,100206.59
2023-10-10T21:32:33.260Z,100216.81
2023-10-10T21:35:00.983Z,100213.28
2023-10-10T21:37:28.492Z,100219.28
2023-10-10T21:39:55.810Z,100218.25
2023-10-10T21:42:24.599Z,100223.88
2023-10-10T21:44:52.021Z,100214.47
2023-10-10T21:47:19.315Z,100215.13
2023-10-10T21:49:46.617Z,100221.53
2023-10-10T21:52:13.929Z,100220.06
2023-10-10T21:54:41.257Z,100222.09
2023-10-10T21:57:08.738Z,100223.81
2023-10-10T21:59:37.436Z,100227.72
2023-10-10T22:02:04.843Z,100220.59
2023-10-10T22:04:32.302Z,100218.72
2023-10-10T22:06:59.682Z,100216.84
2023-10-10T22:09:27.047Z,100220.53
2023-10-10T22:11:54.357Z,100212.63
2023-10-10T22:14:21.663Z,100217.41
2023-10-10T22:16:50.591Z,100207.97
2023-10-10T22:19:18.447Z,100206.78
2023-10-10T22:21:45.911Z,100212.13
2023-10-10T22:24:13.215Z,100200.75
2023-10-10T22:26:40.617Z,100196.78
2023-10-10T22:29:07.944Z,100198.59
2023-10-10T22:31:35.267Z,100199.88
2023-10-10T22:34:03.984Z,100203.28
2023-10-10T22:36:31.283Z,100198.28
2023-10-10T22:38:58.610Z,100197.94
2023-10-10T22:41:25.910Z,100197.75
2023-10-10T22:43:53.224Z,100197.44
2023-10-10T22:46:20.828Z,100192.34
2023-10-10T22:48:48.299Z,100188.28
2023-10-10T22:51:17.015Z,100187.16
2023-10-10T22:53:44.436Z,100191.91
2023-10-10T22:56:11.956Z,100187.00
2023-10-10T22:58:39.333Z,100186.94
2023-10-10T23:01:06.627Z,100193.59
2023-10-10T23:03:34.081Z,100192.94
2023-10-10T23:06:01.541Z,100192.22
2023-10-10T23:08:30.296Z,100195.19
2023-10-10T23:10:57.593Z,100195.97
2023-10-10T23:13:24.997Z,100193.06
2023-10-10T23:15:56.510Z,100189.16
2023-10-10T23:18:23.876Z,100184.06
2023-10-10T23:20:51.320Z,100180.78
2023-10-10T23:23:19.043Z,100187.94
2023-10-10T23:25:49.132Z,100188.44
2023-10-10T23:28:16.443Z,100184.97
2023-10-10T23:30:43.960Z,100180.28
2023-10-10T23:33:11.380Z,100175.59
2023-10-10T23:35:38.864Z,100175.13
2023-10-10T23:38:06.225Z,100178.56
2023-10-10T23:40:34.357Z,100175.63
2023-10-10T23:43:03.299Z,100181.63
2023-10-10T23:45:30.847Z,100175.25
2023-10-10T23:47:58.543Z,100177.97
2023-10-10T23:50:27.546Z,100174.69
2023-10-10T23:52:56.398Z,100178.22
2023-10-10T23:55:25.604Z,100175.78
2023-10-10T23:57:52.986Z,100165.38
